createdAt,value
2019-05-12T00:01:18.507Z,6.00
2019-05-12T00:03:48.439Z,6.40
2019-05-12T00:06:18.412Z,6.00
2019-05-12T00:08:48.720Z,6.00
2019-05-12T00:11:18.595Z,5.70
2019-05-12T00:13:48.571Z,5.50
2019-05-12T00:16:18.925Z,5.50
2019-05-12T00:18:49.012Z,5.70
2019-05-12T00:21:18.678Z,5.80
2019-05-12T00:24:07.930Z,5.90
2019-05-12T00:26:38.294Z,5.70
2019-05-12T00:29:08.393Z,5.40
2019-05-12T00:31:39.302Z,5.50
2019-05-12T00:34:09.294Z,5.40
2019-05-12T00:36:38.838Z,5.60
2019-05-12T00:39:11.185Z,5.80
2019-05-12T00:41:44.242Z,5.80
2019-05-12T00:44:12.949Z,5.60
2019-05-12T00:46:42.837Z,5.40
2019-05-12T00:49:13.098Z,5.30
2019-05-12T00:51:48.499Z,5.30
2019-05-12T00:54:18.176Z,5.20
2019-05-12T00:56:50.145Z,5.20
2019-05-12T00:59:20.134Z,5.30
2019-05-12T01:01:50.243Z,5.40
2019-05-12T01:04:20.817Z,5.30
2019-05-12T01:06:52.009Z,5.40
2019-05-12T01:09:22.329Z,5.30
2019-05-12T01:11:52.439Z,5.30
2019-05-12T01:14:22.216Z,5.20
2019-05-12T01:16:51.943Z,5.20
2019-05-12T01:19:22.050Z,5.30
2019-05-12T01:21:51.634Z,5.40
2019-05-12T01:24:21.952Z,5.20
2019-05-12T01:26:51.637Z,5.20
2019-05-12T01:29:21.455Z,5.30
2019-05-12T01:31:58.578Z,5.40
2019-05-12T01:34:28.635Z,5.40
2019-05-12T01:37:18.395Z,5.40
2019-05-12T01:39:49.130Z,5.60
2019-05-12T01:42:19.289Z,5.30
2019-05-12T01:44:52.439Z,5.50
2019-05-12T01:47:22.715Z,5.40
2019-05-12T01:49:52.412Z,5.50
2019-05-12T01:52:22.208Z,5.40
2019-05-12T01:54:52.023Z,5.40
2019-05-12T01:57:22.496Z,5.30
2019-05-12T01:59:53.237Z,5.40
2019-05-12T02:02:23.146Z,5.40
2019-05-12T02:05:21.497Z,5.30
2019-05-12T02:07:53.245Z,5.60
2019-05-12T02:10:25.489Z,5.40
2019-05-12T02:12:55.743Z,5.50
2019-05-12T02:15:27.857Z,5.40
2019-05-12T02:17:58.946Z,5.50
2019-05-12T02:20:29.075Z,5.30
2019-05-12T02:22:58.876Z,5.10
2019-05-12T02:25:29.066Z,5.10
2019-05-12T02:27:58.816Z,5.20
2019-05-12T02:30:30.439Z,5.30
2019-05-12T02:33:00.547Z,5.30
2019-05-12T02:35:35.473Z,5.40
2019-05-12T02:38:05.343Z,5.30
2019-05-12T02:40:44.891Z,5.30
2019-05-12T02:43:15.508Z,5.20
2019-05-12T02:45:45.001Z,5.30
2019-05-12T02:48:15.442Z,5.10
2019-05-12T02:50:45.500Z,5.20
2019-05-12T02:53:15.653Z,5.30
2019-05-12T02:55:48.159Z,5.30
2019-05-12T02:58:19.316Z,5.40
2019-05-12T03:00:49.780Z,5.20
2019-05-12T03:03:25.136Z,5.20
2019-05-12T03:05:55.941Z,5.20
2019-05-12T03:08:26.941Z,5.00
2019-05-12T03:10:57.314Z,5.10
2019-05-12T03:13:26.838Z,5.10
2019-05-12T03:15:56.621Z,5.10
2019-05-12T03:18:26.764Z,5.10
2019-05-12T03:20:56.535Z,5.10
2019-05-12T03:23:26.267Z,5.20
2019-05-12T03:25:55.894Z,5.10
2019-05-12T03:28:25.949Z,5.20
2019-05-12T03:31:07.517Z,5.10
2019-05-12T03:33:42.661Z,5.10
2019-05-12T03:36:08.893Z,5.10
2019-05-12T03:38:37.700Z,5.10
2019-05-12T03:41:08.202Z,5.10
2019-05-12T03:43:38.228Z,4.80
2019-05-12T03:46:08.028Z,4.80
2019-05-12T03:48:37.838Z,4.90
2019-05-12T03:51:07.724Z,4.90
2019-05-12T03:53:39.767Z,5.00
2019-05-12T03:56:09.545Z,4.80
2019-05-12T03:58:39.442Z,4.90
2019-05-12T04:01:15.057Z,4.90
2019-05-12T04:03:45.156Z,4.70
2019-05-12T04:06:15.726Z,4.40
2019-05-12T04:08:45.938Z,4.50
2019-05-12T04:11:16.229Z,4.50
2019-05-12T04:13:46.083Z,4.50
2019-05-12T04:16:16.361Z,4.50
2019-05-12T04:18:47.650Z,4.40
2019-05-12T04:21:17.703Z,4.60
2019-05-12T04:23:47.369Z,4.70
2019-05-12T04:26:18.549Z,4.70
2019-05-12T04:28:48.687Z,4.80
2019-05-12T04:31:19.041Z,4.90
2019-05-12T04:33:49.397Z,5.00
2019-05-12T04:36:19.410Z,5.00
2019-05-12T04:38:50.052Z,5.20
2019-05-12T04:41:20.631Z,5.30
2019-05-12T04:43:50.509Z,5.30
2019-05-12T04:46:21.111Z,5.20
2019-05-12T04:48:54.467Z,5.40
2019-05-12T04:51:24.966Z,5.50
2019-05-12T04:53:54.977Z,5.40
2019-05-12T04:56:25.167Z,5.30
2019-05-12T04:58:54.930Z,5.40
2019-05-12T05:01:25.624Z,5.40
2019-05-12T05:03:58.853Z,5.40
2019-05-12T05:06:28.609Z,5.70
2019-05-12T05:08:58.922Z,5.60
2019-05-12T05:11:29.761Z,5.50
2019-05-12T05:13:59.560Z,6.00
2019-05-12T05:16:29.242Z,6.30
2019-05-12T05:18:59.481Z,6.30
2019-05-12T05:21:29.763Z,6.50
2019-05-12T05:23:59.488Z,6.70
2019-05-12T05:26:29.617Z,6.70
2019-05-12T05:28:59.736Z,6.80
2019-05-12T05:31:29.719Z,7.20
2019-05-12T05:33:59.563Z,7.50
2019-05-12T05:36:30.623Z,7.30
2019-05-12T05:39:02.242Z,7.80
2019-05-12T05:41:34.507Z,8.00
2019-05-12T05:44:08.474Z,8.30
2019-05-12T05:46:44.457Z,8.20
2019-05-12T05:49:15.871Z,8.50
2019-05-12T05:51:53.659Z,7.90
2019-05-12T05:54:22.702Z,7.70
2019-05-12T05:56:59.523Z,8.90
2019-05-12T05:59:41.053Z,8.60
2019-05-12T06:02:10.484Z,9.00
2019-05-12T06:04:45.461Z,9.00
2019-05-12T06:07:14.353Z,9.40
2019-05-12T06:09:44.675Z,8.60
2019-05-12T06:12:14.292Z,8.90
2019-05-12T06:14:46.748Z,8.80
2019-05-12T06:17:16.461Z,9.30
2019-05-12T06:19:46.954Z,9.20
2019-05-12T06:22:18.461Z,9.30
2019-05-12T06:24:56.872Z,9.80
2019-05-12T06:27:21.295Z,10.10
2019-05-12T06:29:52.467Z,10.30
2019-05-12T06:32:25.077Z,10.00
2019-05-12T06:35:01.371Z,9.90
2019-05-12T06:37:27.889Z,10.50
2019-05-12T06:40:00.652Z,10.20
2019-05-12T06:42:31.031Z,10.70
2019-05-12T06:45:03.279Z,10.50
2019-05-12T06:47:34.433Z,11.10
2019-05-12T06:50:05.117Z,11.20
2019-05-12T06:52:38.602Z,9.80
2019-05-12T06:55:07.095Z,10.00
2019-05-12T06:57:40.142Z,10.20
2019-05-12T07:00:14.404Z,10.30
2019-05-12T07:02:50.075Z,11.20
2019-05-12T07:05:16.071Z,12.60
2019-05-12T07:07:47.679Z,10.60
2019-05-12T07:10:35.607Z,10.50
2019-05-12T07:13:00.797Z,10.60
2019-05-12T07:15:23.370Z,10.90
2019-05-12T07:18:00.997Z,11.30
2019-05-12T07:20:35.429Z,11.30
2019-05-12T07:23:06.829Z,10.90
2019-05-12T07:25:37.229Z,11.00
2019-05-12T07:28:09.474Z,11.10
2019-05-12T07:30:39.509Z,11.10
2019-05-12T07:33:09.856Z,11.40
2019-05-12T07:35:44.459Z,11.10
2019-05-12T07:38:20.971Z,11.70
2019-05-12T07:40:49.674Z,11.90
2019-05-12T07:43:24.150Z,12.60
2019-05-12T07:46:02.518Z,12.30
2019-05-12T07:48:28.938Z,11.70
2019-05-12T07:51:00.765Z,11.70
2019-05-12T07:53:33.972Z,11.20
2019-05-12T07:56:04.297Z,11.20
2019-05-12T07:58:34.784Z,12.00
2019-05-12T08:01:07.730Z,12.30
2019-05-12T08:03:36.624Z,11.60
2019-05-12T08:06:06.915Z,11.60
2019-05-12T08:08:41.789Z,11.70
2019-05-12T08:11:08.362Z,10.90
2019-05-12T08:13:40.903Z,11.30
2019-05-12T08:16:10.410Z,12.10
2019-05-12T08:18:41.606Z,12.10
2019-05-12T08:21:13.807Z,11.90
2019-05-12T08:23:44.464Z,13.40
2019-05-12T08:26:18.685Z,12.50
2019-05-12T08:28:47.393Z,12.30
2019-05-12T08:31:23.558Z,12.70
2019-05-12T08:33:51.162Z,10.90
2019-05-12T08:36:23.462Z,10.60
2019-05-12T08:38:56.300Z,13.00
2019-05-12T08:41:26.119Z,13.30
2019-05-12T08:43:58.467Z,12.20
2019-05-12T08:46:27.532Z,12.50
2019-05-12T08:49:02.250Z,13.00
2019-05-12T08:51:29.067Z,13.10
2019-05-12T08:57:58.480Z,11.90
2019-05-12T09:00:50.315Z,11.30
2019-05-12T09:03:26.879Z,11.60
2019-05-12T09:05:55.582Z,12.50
2019-05-12T09:08:25.758Z,12.40
2019-05-12T09:10:56.191Z,11.90
2019-05-12T09:13:29.880Z,11.40
2019-05-12T09:15:59.815Z,11.90
2019-05-12T09:18:35.221Z,11.10
2019-05-12T09:21:03.724Z,13.00
2019-05-12T09:23:41.096Z,13.80
2019-05-12T09:26:05.339Z,13.30
2019-05-12T09:28:46.448Z,12.30
2019-05-12T09:31:07.027Z,12.30
2019-05-12T09:33:37.310Z,13.20
2019-05-12T09:36:11.459Z,13.10
2019-05-12T09:38:40.994Z,14.40
2019-05-12T09:41:15.348Z,13.40
2019-05-12T09:43:50.305Z,12.70
2019-05-12T09:46:18.435Z,12.10
2019-05-12T09:48:52.045Z,12.50
2019-05-12T09:51:20.898Z,14.80
2019-05-12T09:53:53.212Z,15.10
2019-05-12T09:56:23.960Z,13.10
2019-05-12T09:59:01.421Z,12.60
2019-05-12T10:01:29.364Z,13.10
2019-05-12T10:03:56.837Z,15.30
2019-05-12T10:06:27.655Z,13.40
2019-05-12T10:08:57.333Z,13.20
2019-05-12T10:11:27.056Z,13.10
2019-05-12T10:14:00.214Z,13.70
2019-05-12T10:16:28.972Z,15.00
2019-05-12T10:18:58.653Z,13.90
2019-05-12T10:21:28.811Z,13.70
2019-05-12T10:24:02.845Z,12.10
2019-05-12T10:26:34.287Z,12.80
2019-05-12T10:29:16.211Z,12.70
2019-05-12T10:31:39.358Z,12.10
2019-05-12T10:34:24.070Z,12.30
2019-05-12T10:36:54.439Z,12.10
2019-05-12T10:39:24.799Z,11.60
2019-05-12T10:41:54.876Z,11.80
2019-05-12T10:44:30.110Z,11.80
2019-05-12T10:46:59.438Z,12.80
2019-05-12T10:49:29.312Z,12.70
2019-05-12T10:51:59.134Z,12.10
2019-05-12T10:54:29.323Z,12.00
2019-05-12T10:56:59.035Z,12.40
2019-05-12T10:59:33.211Z,12.20
2019-05-12T11:02:00.552Z,13.50
2019-05-12T11:04:37.023Z,14.80
2019-05-12T11:07:04.679Z,13.00
2019-05-12T11:09:34.746Z,13.40
2019-05-12T11:12:04.735Z,15.60
2019-05-12T11:14:34.704Z,14.40
2019-05-12T11:17:10.259Z,13.50
2019-05-12T11:19:45.854Z,13.00
2019-05-12T11:22:13.894Z,14.80
2019-05-12T11:24:46.990Z,14.30
2019-05-12T11:27:17.119Z,13.90
2019-05-12T11:29:49.547Z,14.30
2019-05-12T11:32:19.696Z,15.20
2019-05-12T11:34:53.501Z,15.80
2019-05-12T11:37:23.135Z,15.00
2019-05-12T11:39:53.575Z,13.10
2019-05-12T11:42:25.730Z,13.90
2019-05-12T11:44:55.691Z,13.90
2019-05-12T11:47:26.051Z,14.30
2019-05-12T11:49:58.462Z,14.40
2019-05-12T11:52:27.949Z,14.20
2019-05-12T11:54:58.002Z,14.50
2019-05-12T11:57:30.278Z,14.90
2019-05-12T12:00:02.355Z,14.90
2019-05-12T12:02:34.062Z,14.80
2019-05-12T12:05:03.403Z,14.20
2019-05-12T12:07:39.394Z,16.00
2019-05-12T12:10:06.952Z,14.60
2019-05-12T12:12:39.651Z,14.00
2019-05-12T12:15:20.393Z,16.00
2019-05-12T12:17:53.462Z,15.20
2019-05-12T12:20:24.238Z,15.60
2019-05-12T12:23:00.038Z,14.40
2019-05-12T12:25:30.403Z,14.40
2019-05-12T12:28:00.567Z,14.50
2019-05-12T12:30:30.447Z,14.30
2019-05-12T12:33:00.529Z,15.40
2019-05-12T12:35:30.497Z,16.40
2019-05-12T12:38:03.045Z,15.00
2019-05-12T12:40:32.930Z,14.80
2019-05-12T12:43:03.953Z,17.20
2019-05-12T12:45:40.560Z,16.50
2019-05-12T12:48:10.578Z,13.90
2019-05-12T12:50:40.723Z,14.70
2019-05-12T12:53:11.427Z,16.20
2019-05-12T12:55:43.737Z,15.70
2019-05-12T12:58:14.207Z,14.10
2019-05-12T13:00:47.991Z,16.50
2019-05-12T13:03:25.668Z,16.50
2019-05-12T13:05:54.234Z,14.50
2019-05-12T13:08:24.841Z,15.00
2019-05-12T13:10:55.315Z,16.60
2019-05-12T13:13:25.595Z,13.60
2019-05-12T13:15:56.804Z,16.20
2019-05-12T13:18:33.090Z,17.20
2019-05-12T13:20:58.437Z,15.60
2019-05-12T13:23:38.124Z,14.00
2019-05-12T13:26:00.660Z,15.30
2019-05-12T13:28:31.472Z,14.10
2019-05-12T13:31:21.433Z,14.30
2019-05-12T13:33:54.933Z,13.70
2019-05-12T13:36:29.599Z,13.50
2019-05-12T13:38:56.308Z,14.40
2019-05-12T13:41:26.892Z,14.70
2019-05-12T13:43:59.954Z,15.70
2019-05-12T13:46:29.929Z,16.00
2019-05-12T13:49:03.052Z,14.50
2019-05-12T13:51:33.420Z,16.80
2019-05-12T13:54:03.856Z,16.50
2019-05-12T13:56:36.551Z,15.30
2019-05-12T13:59:11.989Z,14.30
2019-05-12T14:01:40.635Z,14.90
2019-05-12T14:04:15.534Z,15.30
2019-05-12T14:06:45.556Z,16.40
2019-05-12T14:09:18.601Z,14.60
2019-05-12T14:11:48.573Z,13.80
2019-05-12T14:14:20.961Z,16.20
2019-05-12T14:16:58.678Z,15.80
2019-05-12T14:19:30.403Z,16.60
2019-05-12T14:21:59.813Z,15.80
2019-05-12T14:24:33.245Z,15.80
2019-05-12T14:27:04.102Z,14.50
2019-05-12T14:29:34.714Z,16.40
2019-05-12T14:32:05.391Z,15.00
2019-05-12T14:34:35.720Z,14.00
2019-05-12T14:37:10.389Z,15.60
2019-05-12T14:39:40.250Z,14.30
2019-05-12T14:42:13.440Z,16.00
2019-05-12T14:44:49.357Z,15.40
2019-05-12T14:47:19.141Z,13.60
2019-05-12T14:49:48.432Z,13.80
2019-05-12T14:52:19.076Z,14.10
2019-05-12T14:54:49.441Z,16.10
2019-05-12T14:57:19.548Z,14.90
2019-05-12T14:59:49.910Z,15.50
2019-05-12T15:02:29.427Z,15.50
2019-05-12T15:05:00.236Z,15.30
2019-05-12T15:07:31.261Z,15.40
2019-05-12T15:10:03.712Z,14.10
2019-05-12T15:12:33.563Z,13.80
2019-05-12T15:15:03.903Z,14.10
2019-05-12T15:17:35.942Z,13.70
2019-05-12T15:20:10.469Z,15.60
2019-05-12T15:22:42.933Z,14.50
2019-05-12T15:25:10.794Z,14.00
2019-05-12T15:27:45.225Z,14.30
2019-05-12T15:30:22.391Z,13.50
2019-05-12T15:33:04.772Z,15.20
2019-05-12T15:35:34.686Z,15.20
2019-05-12T15:38:09.487Z,14.50
2019-05-12T15:40:37.332Z,13.30
2019-05-12T15:43:09.474Z,14.30
2019-05-12T15:45:39.907Z,14.60
2019-05-12T15:48:10.356Z,13.40
2019-05-12T15:50:45.441Z,15.60
2019-05-12T15:53:22.270Z,15.60
2019-05-12T15:55:49.910Z,14.40
2019-05-12T15:58:18.791Z,15.30
2019-05-12T16:00:54.007Z,13.40
2019-05-12T16:03:23.975Z,14.20
2019-05-12T16:06:01.287Z,13.70
2019-05-12T16:08:28.645Z,13.50
2019-05-12T16:11:01.113Z,14.70
2019-05-12T16:13:33.819Z,12.80
2019-05-12T16:16:06.697Z,14.70
2019-05-12T16:18:40.619Z,16.90
2019-05-12T16:21:09.507Z,14.10
2019-05-12T16:23:39.968Z,15.60
2019-05-12T16:26:14.680Z,14.50
2019-05-12T16:28:44.069Z,15.50
2019-05-12T16:31:14.494Z,13.90
2019-05-12T16:33:44.929Z,14.10
2019-05-12T16:36:15.417Z,16.50
2019-05-12T16:38:50.115Z,14.00
2019-05-12T16:41:19.814Z,13.80
2019-05-12T16:43:50.554Z,14.30
2019-05-12T16:46:23.515Z,17.60
2019-05-12T16:48:56.757Z,13.50
2019-05-12T16:51:25.413Z,15.00
2019-05-12T16:53:55.475Z,13.30
2019-05-12T16:56:29.537Z,13.60
2019-05-12T16:58:58.597Z,14.70
2019-05-12T17:01:29.935Z,14.70
2019-05-12T17:04:00.400Z,13.80
2019-05-12T17:06:35.201Z,14.10
2019-05-12T17:09:03.429Z,13.20
2019-05-12T17:11:37.431Z,14.70
2019-05-12T17:14:05.846Z,14.70
2019-05-12T17:16:41.881Z,14.70
2019-05-12T17:19:11.249Z,14.60
2019-05-12T17:21:41.132Z,14.90
2019-05-12T17:24:10.955Z,13.20
2019-05-12T17:26:41.241Z,12.80
2019-05-12T17:29:13.665Z,12.60
2019-05-12T17:31:44.385Z,14.70
2019-05-12T17:34:15.669Z,12.70
2019-05-12T17:36:50.013Z,14.20
2019-05-12T17:39:17.770Z,13.60
2019-05-12T17:41:47.829Z,14.40
2019-05-12T17:44:18.960Z,14.00
2019-05-12T17:46:55.102Z,13.20
2019-05-12T17:49:30.568Z,15.30
2019-05-12T17:52:04.546Z,12.90
2019-05-12T17:54:30.998Z,14.00
2019-05-12T17:57:01.249Z,13.90
2019-05-12T17:59:33.285Z,13.40
2019-05-12T18:02:11.414Z,15.20
2019-05-12T18:04:38.835Z,12.50
2019-05-12T18:07:13.175Z,12.80
2019-05-12T18:09:41.249Z,11.70
2019-05-12T18:12:13.653Z,12.70
2019-05-12T18:14:54.891Z,12.50
2019-05-12T18:17:28.539Z,11.80
2019-05-12T18:20:00.928Z,11.80
2019-05-12T18:22:30.585Z,12.30
2019-05-12T18:25:04.132Z,12.40
2019-05-12T18:27:44.640Z,12.30
2019-05-12T18:30:11.643Z,13.60
2019-05-12T18:32:41.492Z,14.80
2019-05-12T18:35:13.427Z,12.30
2019-05-12T18:37:43.789Z,12.20
2019-05-12T18:40:14.687Z,11.30
2019-05-12T18:42:45.619Z,12.40
2019-05-12T18:45:18.037Z,13.80
2019-05-12T18:47:49.048Z,12.00
2019-05-12T18:50:27.017Z,10.20
2019-05-12T18:52:56.708Z,11.20
2019-05-12T18:55:29.353Z,11.70
2019-05-12T18:57:58.297Z,10.70
2019-05-12T19:00:28.059Z,10.70
2019-05-12T19:02:59.696Z,9.90
2019-05-12T19:05:31.144Z,11.60
2019-05-12T19:08:03.531Z,11.40
2019-05-12T19:10:33.470Z,11.20
2019-05-12T19:13:06.452Z,12.30
2019-05-12T19:15:35.084Z,12.60
2019-05-12T19:18:05.537Z,11.90
2019-05-12T19:20:37.649Z,12.60
2019-05-12T19:23:08.057Z,12.50
2019-05-12T19:25:40.710Z,11.80
2019-05-12T19:28:10.622Z,10.70
2019-05-12T19:30:43.735Z,12.40
2019-05-12T19:33:13.891Z,13.10
2019-05-12T19:35:43.677Z,11.70
2019-05-12T19:38:15.595Z,12.50
2019-05-12T19:40:47.227Z,10.00
2019-05-12T19:43:17.980Z,9.10
2019-05-12T19:45:53.690Z,10.40
2019-05-12T19:48:26.541Z,11.60
2019-05-12T19:50:56.639Z,11.30
2019-05-12T19:53:23.968Z,11.20
2019-05-12T19:55:53.839Z,12.10
2019-05-12T19:58:23.931Z,11.30
2019-05-12T20:00:58.743Z,11.90
2019-05-12T20:03:29.409Z,12.30
2019-05-12T20:05:59.148Z,12.50
2019-05-12T20:08:30.061Z,12.10
2019-05-12T20:11:10.012Z,12.30
2019-05-12T20:13:40.199Z,12.00
2019-05-12T20:16:11.631Z,11.90
2019-05-12T20:18:44.101Z,12.10
2019-05-12T20:21:13.818Z,12.10
2019-05-12T20:23:44.022Z,11.90
2019-05-12T20:26:14.649Z,11.50
2019-05-12T20:28:50.590Z,11.20
2019-05-12T20:31:15.868Z,10.20
2019-05-12T20:33:47.459Z,10.90
2019-05-12T20:36:20.670Z,11.20
2019-05-12T20:38:48.746Z,11.40
2019-05-12T20:41:23.481Z,10.40
2019-05-12T20:43:50.675Z,9.40
2019-05-12T20:46:24.098Z,10.30
2019-05-12T20:48:53.840Z,10.00
2019-05-12T20:51:24.489Z,10.00
2019-05-12T20:53:54.669Z,9.40
2019-05-12T20:56:25.034Z,9.20
2019-05-12T20:58:55.438Z,9.50
2019-05-12T21:01:29.921Z,10.00
2019-05-12T21:03:57.182Z,10.00
2019-05-12T21:06:53.967Z,8.70
2019-05-12T21:09:25.490Z,9.20
2019-05-12T21:11:55.553Z,9.00
2019-05-12T21:14:25.851Z,9.60
2019-05-12T21:16:56.043Z,8.40
2019-05-12T21:19:29.173Z,9.30
2019-05-12T21:21:59.199Z,8.60
2019-05-12T21:24:34.900Z,8.80
2019-05-12T21:27:03.892Z,9.00
2019-05-12T21:29:33.965Z,8.90
2019-05-12T21:32:11.894Z,8.30
2019-05-12T21:34:36.509Z,8.00
2019-05-12T21:37:06.825Z,8.50
2019-05-12T21:39:40.697Z,9.10
2019-05-12T21:42:08.508Z,9.10
2019-05-12T21:44:41.328Z,8.80
2019-05-12T21:47:13.701Z,8.80
2019-05-12T21:49:48.137Z,9.00
2019-05-12T21:52:15.725Z,9.30
2019-05-12T21:54:45.591Z,8.50
2019-05-12T21:57:19.167Z,8.90
2019-05-12T21:59:46.992Z,8.60
2019-05-12T22:02:19.666Z,8.90
2019-05-12T22:04:50.186Z,8.70
2019-05-12T22:07:21.302Z,8.70
2019-05-12T22:09:53.689Z,8.50
2019-05-12T22:12:28.437Z,8.60
2019-05-12T22:14:55.267Z,8.70
2019-05-12T22:17:28.084Z,7.90
2019-05-12T22:19:58.908Z,8.10
2019-05-12T22:22:30.033Z,7.30
2019-05-12T22:25:00.964Z,7.30
2019-05-12T22:27:31.029Z,7.20
2019-05-12T22:30:06.951Z,7.20
2019-05-12T22:32:37.378Z,7.00
2019-05-12T22:35:07.406Z,7.50
2019-05-12T22:37:39.234Z,7.40
2019-05-12T22:40:17.271Z,7.40
2019-05-12T22:42:40.554Z,7.70
2019-05-12T22:45:15.076Z,7.70
2019-05-12T22:47:43.957Z,7.40
2019-05-12T22:50:14.061Z,7.90
2019-05-12T22:52:47.357Z,8.00
2019-05-12T22:55:32.231Z,8.10
2019-05-12T22:57:58.035Z,8.00
2019-05-12T23:00:28.288Z,7.30
2019-05-12T23:03:00.455Z,7.50
2019-05-12T23:05:30.203Z,7.40
2019-05-12T23:08:05.800Z,7.50
2019-05-12T23:10:31.830Z,7.60
2019-05-12T23:13:04.841Z,7.60
2019-05-12T23:15:33.634Z,7.10
2019-05-12T23:18:04.307Z,6.30
2019-05-12T23:20:35.678Z,7.10
2019-05-12T23:23:09.065Z,6.80
2019-05-12T23:25:38.619Z,6.60
2019-05-12T23:28:10.598Z,6.50
2019-05-12T23:30:43.803Z,7.00
2019-05-12T23:33:14.080Z,7.10
2019-05-12T23:35:44.470Z,6.90
2019-05-12T23:38:16.765Z,6.70
2019-05-12T23:40:47.097Z,6.70
2019-05-12T23:43:16.876Z,6.70
2019-05-12T23:45:47.949Z,6.90
2019-05-12T23:48:17.945Z,7.00
2019-05-12T23:50:48.131Z,6.70
2019-05-12T23:53:18.292Z,6.70
2019-05-12T23:55:48.590Z,6.60
2019-05-12T23:58:18.610Z,6.70
